sensor_id;sensor_type;location;lat;lon;timestamp;P1;durP1;ratioP1;P2;durP2;ratioP2
17488;SDS011;8861;52.644;4.734;2022-08-07T00:00:52;4.70;;;3.87;;
17488;SDS011;8861;52.644;4.734;2022-08-07T00:03:20;4.40;;;3.90;;
17488;SDS011;8861;52.644;4.734;2022-08-07T00:05:48;3.80;;;3.50;;
17488;SDS011;8861;52.644;4.734;2022-08-07T00:08:16;3.90;;;3.50;;
17488;SDS011;8861;52.644;4.734;2022-08-07T00:10:44;5.23;;;3.80;;
17488;SDS011;8861;52.644;4.734;2022-08-07T00:13:11;3.50;;;3.20;;
17488;SDS011;8861;52.644;4.734;2022-08-07T00:15:38;4.43;;;3.67;;
17488;SDS011;8861;52.644;4.734;2022-08-07T00:18:05;4.10;;;3.37;;
17488;SDS011;8861;52.644;4.734;2022-08-07T00:20:35;4.37;;;3.67;;
17488;SDS011;8861;52.644;4.734;2022-08-07T00:23:02;4.50;;;3.50;;
17488;SDS011;8861;52.644;4.734;2022-08-07T00:25:31;3.87;;;3.30;;
17488;SDS011;8861;52.644;4.734;2022-08-07T00:27:58;4.50;;;3.63;;
17488;SDS011;8861;52.644;4.734;2022-08-07T00:30:25;4.20;;;3.67;;
17488;SDS011;8861;52.644;4.734;2022-08-07T00:32:52;4.00;;;3.60;;
17488;SDS011;8861;52.644;4.734;2022-08-07T00:35:19;4.27;;;3.30;;
17488;SDS011;8861;52.644;4.734;2022-08-07T00:37:48;4.13;;;3.50;;
17488;SDS011;8861;52.644;4.734;2022-08-07T00:40:16;4.47;;;3.50;;
17488;SDS011;8861;52.644;4.734;2022-08-07T00:42:43;3.87;;;3.47;;
17488;SDS011;8861;52.644;4.734;2022-08-07T00:45:11;4.40;;;3.87;;
17488;SDS011;8861;52.644;4.734;2022-08-07T00:47:38;4.37;;;3.40;;
17488;SDS011;8861;52.644;4.734;2022-08-07T00:50:05;5.17;;;3.93;;
17488;SDS011;8861;52.644;4.734;2022-08-07T00:52:32;5.03;;;3.63;;
17488;SDS011;8861;52.644;4.734;2022-08-07T00:55:01;4.57;;;3.83;;
17488;SDS011;8861;52.644;4.734;2022-08-07T00:57:28;4.67;;;3.70;;
17488;SDS011;8861;52.644;4.734;2022-08-07T00:59:55;4.80;;;3.93;;
17488;SDS011;8861;52.644;4.734;2022-08-07T01:02:22;4.93;;;3.90;;
17488;SDS011;8861;52.644;4.734;2022-08-07T01:04:50;4.70;;;3.90;;
17488;SDS011;8861;52.644;4.734;2022-08-07T01:07:18;4.27;;;3.77;;
17488;SDS011;8861;52.644;4.734;2022-08-07T01:09:46;3.93;;;3.33;;
17488;SDS011;8861;52.644;4.734;2022-08-07T01:12:15;4.37;;;3.70;;
17488;SDS011;8861;52.644;4.734;2022-08-07T01:14:42;5.47;;;4.13;;
17488;SDS011;8861;52.644;4.734;2022-08-07T01:17:09;5.13;;;4.10;;
17488;SDS011;8861;52.644;4.734;2022-08-07T01:19:37;4.90;;;3.97;;
17488;SDS011;8861;52.644;4.734;2022-08-07T01:22:05;5.07;;;4.13;;
17488;SDS011;8861;52.644;4.734;2022-08-07T01:24:32;4.63;;;3.97;;
17488;SDS011;8861;52.644;4.734;2022-08-07T01:27:01;4.80;;;4.00;;
17488;SDS011;8861;52.644;4.734;2022-08-07T01:29:28;5.30;;;4.23;;
17488;SDS011;8861;52.644;4.734;2022-08-07T01:31:58;4.87;;;3.80;;
17488;SDS011;8861;52.644;4.734;2022-08-07T01:34:25;4.30;;;3.40;;
17488;SDS011;8861;52.644;4.734;2022-08-07T01:36:55;5.10;;;4.03;;
17488;SDS011;8861;52.644;4.734;2022-08-07T01:39:23;4.50;;;4.00;;
17488;SDS011;8861;52.644;4.734;2022-08-07T01:41:50;4.63;;;4.13;;
17488;SDS011;8861;52.644;4.734;2022-08-07T01:44:18;5.10;;;4.30;;
17488;SDS011;8861;52.644;4.734;2022-08-07T01:46:45;5.60;;;4.30;;
17488;SDS011;8861;52.644;4.734;2022-08-07T01:49:12;4.70;;;3.90;;
17488;SDS011;8861;52.644;4.734;2022-08-07T01:51:39;4.53;;;3.93;;
17488;SDS011;8861;52.644;4.734;2022-08-07T01:54:08;6.40;;;4.40;;
17488;SDS011;8861;52.644;4.734;2022-08-07T01:56:42;4.10;;;3.70;;
17488;SDS011;8861;52.644;4.734;2022-08-07T01:59:14;5.03;;;4.10;;
17488;SDS011;8861;52.644;4.734;2022-08-07T02:01:51;5.17;;;4.00;;
17488;SDS011;8861;52.644;4.734;2022-08-07T02:04:24;4.30;;;3.70;;
17488;SDS011;8861;52.644;4.734;2022-08-07T02:06:54;4.23;;;3.60;;
17488;SDS011;8861;52.644;4.734;2022-08-07T02:09:24;4.33;;;3.20;;
17488;SDS011;8861;52.644;4.734;2022-08-07T02:11:55;3.57;;;3.27;;
17488;SDS011;8861;52.644;4.734;2022-08-07T02:14:23;3.67;;;3.37;;
17488;SDS011;8861;52.644;4.734;2022-08-07T02:16:52;3.40;;;3.10;;
17488;SDS011;8861;52.644;4.734;2022-08-07T02:19:20;3.43;;;3.13;;
17488;SDS011;8861;52.644;4.734;2022-08-07T02:21:49;3.40;;;3.10;;
17488;SDS011;8861;52.644;4.734;2022-08-07T02:24:19;5.00;;;3.63;;
17488;SDS011;8861;52.644;4.734;2022-08-07T02:26:47;4.00;;;3.60;;
17488;SDS011;8861;52.644;4.734;2022-08-07T02:29:16;3.90;;;3.50;;
17488;SDS011;8861;52.644;4.734;2022-08-07T02:31:45;3.50;;;3.20;;
17488;SDS011;8861;52.644;4.734;2022-08-07T02:34:13;3.13;;;2.83;;
17488;SDS011;8861;52.644;4.734;2022-08-07T02:36:40;3.33;;;2.90;;
17488;SDS011;8861;52.644;4.734;2022-08-07T02:39:09;3.57;;;3.00;;
17488;SDS011;8861;52.644;4.734;2022-08-07T02:41:37;3.47;;;2.80;;
17488;SDS011;8861;52.644;4.734;2022-08-07T02:44:04;3.00;;;2.70;;
17488;SDS011;8861;52.644;4.734;2022-08-07T02:46:33;3.67;;;2.80;;
17488;SDS011;8861;52.644;4.734;2022-08-07T02:49:02;4.03;;;3.30;;
17488;SDS011;8861;52.644;4.734;2022-08-07T02:51:29;3.20;;;2.90;;
17488;SDS011;8861;52.644;4.734;2022-08-07T02:54:00;3.33;;;2.97;;
17488;SDS011;8861;52.644;4.734;2022-08-07T02:56:29;3.17;;;2.47;;
17488;SDS011;8861;52.644;4.734;2022-08-07T02:58:58;2.90;;;2.60;;
17488;SDS011;8861;52.644;4.734;2022-08-07T03:01:29;3.20;;;2.87;;
17488;SDS011;8861;52.644;4.734;2022-08-07T03:03:58;2.90;;;2.67;;
17488;SDS011;8861;52.644;4.734;2022-08-07T03:06:26;2.90;;;2.60;;
17488;SDS011;8861;52.644;4.734;2022-08-07T03:08:54;2.67;;;2.43;;
17488;SDS011;8861;52.644;4.734;2022-08-07T03:11:22;2.57;;;2.37;;
17488;SDS011;8861;52.644;4.734;2022-08-07T03:13:49;2.60;;;2.40;;
17488;SDS011;8861;52.644;4.734;2022-08-07T03:16:17;2.83;;;2.60;;
17488;SDS011;8861;52.644;4.734;2022-08-07T03:18:44;2.80;;;2.60;;
17488;SDS011;8861;52.644;4.734;2022-08-07T03:21:13;3.07;;;2.50;;
17488;SDS011;8861;52.644;4.734;2022-08-07T03:23:41;3.30;;;2.47;;
17488;SDS011;8861;52.644;4.734;2022-08-07T03:26:09;2.97;;;2.60;;
17488;SDS011;8861;52.644;4.734;2022-08-07T03:28:37;2.27;;;2.10;;
17488;SDS011;8861;52.644;4.734;2022-08-07T03:31:06;2.60;;;2.40;;
17488;SDS011;8861;52.644;4.734;2022-08-07T03:33:45;2.67;;;2.33;;
17488;SDS011;8861;52.644;4.734;2022-08-07T03:36:15;2.50;;;2.30;;
17488;SDS011;8861;52.644;4.734;2022-08-07T03:38:44;2.80;;;2.50;;
17488;SDS011;8861;52.644;4.734;2022-08-07T03:41:12;3.50;;;2.60;;
17488;SDS011;8861;52.644;4.734;2022-08-07T03:43:40;2.63;;;2.43;;
17488;SDS011;8861;52.644;4.734;2022-08-07T03:46:08;3.13;;;2.63;;
17488;SDS011;8861;52.644;4.734;2022-08-07T03:48:37;2.90;;;2.40;;
17488;SDS011;8861;52.644;4.734;2022-08-07T03:51:04;3.30;;;2.90;;
17488;SDS011;8861;52.644;4.734;2022-08-07T03:53:34;2.90;;;2.60;;
17488;SDS011;8861;52.644;4.734;2022-08-07T03:56:03;2.90;;;2.60;;
17488;SDS011;8861;52.644;4.734;2022-08-07T03:58:31;2.70;;;2.50;;
17488;SDS011;8861;52.644;4.734;2022-08-07T04:00:58;3.03;;;2.73;;
17488;SDS011;8861;52.644;4.734;2022-08-07T04:03:26;3.07;;;2.77;;
17488;SDS011;8861;52.644;4.734;2022-08-07T04:05:53;3.10;;;2.80;;
17488;SDS011;8861;52.644;4.734;2022-08-07T04:08:20;3.37;;;2.90;;
17488;SDS011;8861;52.644;4.734;2022-08-07T04:10:49;2.87;;;2.53;;
17488;SDS011;8861;52.644;4.734;2022-08-07T04:13:17;2.90;;;2.60;;
17488;SDS011;8861;52.644;4.734;2022-08-07T04:15:44;2.93;;;2.63;;
17488;SDS011;8861;52.644;4.734;2022-08-07T04:18:12;3.03;;;2.57;;
17488;SDS011;8861;52.644;4.734;2022-08-07T04:20:39;3.77;;;2.80;;
17488;SDS011;8861;52.644;4.734;2022-08-07T04:23:07;3.00;;;2.70;;
17488;SDS011;8861;52.644;4.734;2022-08-07T04:25:35;2.60;;;2.40;;
17488;SDS011;8861;52.644;4.734;2022-08-07T04:28:04;2.80;;;2.50;;
17488;SDS011;8861;52.644;4.734;2022-08-07T04:30:32;3.00;;;2.30;;
17488;SDS011;8861;52.644;4.734;2022-08-07T04:32:59;2.87;;;2.60;;
17488;SDS011;8861;52.644;4.734;2022-08-07T04:35:26;2.90;;;2.60;;
17488;SDS011;8861;52.644;4.734;2022-08-07T04:37:53;2.87;;;2.60;;
17488;SDS011;8861;52.644;4.734;2022-08-07T04:40:21;2.93;;;2.63;;
17488;SDS011;8861;52.644;4.734;2022-08-07T04:42:48;2.83;;;2.47;;
17488;SDS011;8861;52.644;4.734;2022-08-07T04:45:16;2.60;;;2.40;;
17488;SDS011;8861;52.644;4.734;2022-08-07T04:47:48;2.90;;;2.50;;
17488;SDS011;8861;52.644;4.734;2022-08-07T04:50:22;2.47;;;2.27;;
17488;SDS011;8861;52.644;4.734;2022-08-07T04:52:58;2.53;;;2.17;;
17488;SDS011;8861;52.644;4.734;2022-08-07T04:55:33;3.30;;;2.80;;
17488;SDS011;8861;52.644;4.734;2022-08-07T04:58:09;3.90;;;2.63;;
17488;SDS011;8861;52.644;4.734;2022-08-07T05:00:46;2.83;;;2.43;;
17488;SDS011;8861;52.644;4.734;2022-08-07T05:03:20;2.90;;;2.60;;
17488;SDS011;8861;52.644;4.734;2022-08-07T05:05:53;2.77;;;2.43;;
17488;SDS011;8861;52.644;4.734;2022-08-07T05:08:39;3.00;;;2.60;;
17488;SDS011;8861;52.644;4.734;2022-08-07T05:11:12;3.13;;;2.83;;
17488;SDS011;8861;52.644;4.734;2022-08-07T05:13:44;4.83;;;2.50;;
17488;SDS011;8861;52.644;4.734;2022-08-07T05:16:16;2.50;;;2.30;;
17488;SDS011;8861;52.644;4.734;2022-08-07T05:18:48;3.27;;;2.93;;
17488;SDS011;8861;52.644;4.734;2022-08-07T05:21:20;2.90;;;2.60;;
17488;SDS011;8861;52.644;4.734;2022-08-07T05:23:50;2.80;;;2.60;;
17488;SDS011;8861;52.644;4.734;2022-08-07T05:26:23;3.60;;;2.90;;
17488;SDS011;8861;52.644;4.734;2022-08-07T05:28:54;3.10;;;2.80;;
17488;SDS011;8861;52.644;4.734;2022-08-07T05:31:26;3.00;;;2.70;;
17488;SDS011;8861;52.644;4.734;2022-08-07T05:33:55;4.10;;;3.10;;
17488;SDS011;8861;52.644;4.734;2022-08-07T05:36:23;3.33;;;2.93;;
17488;SDS011;8861;52.644;4.734;2022-08-07T05:38:51;3.00;;;2.70;;
17488;SDS011;8861;52.644;4.734;2022-08-07T05:41:18;3.10;;;2.80;;
17488;SDS011;8861;52.644;4.734;2022-08-07T05:43:49;3.50;;;3.20;;
17488;SDS011;8861;52.644;4.734;2022-08-07T05:46:18;3.63;;;3.10;;
17488;SDS011;8861;52.644;4.734;2022-08-07T05:48:47;3.90;;;3.00;;
17488;SDS011;8861;52.644;4.734;2022-08-07T05:51:15;3.67;;;2.97;;
17488;SDS011;8861;52.644;4.734;2022-08-07T05:53:43;3.63;;;2.80;;
17488;SDS011;8861;52.644;4.734;2022-08-07T05:56:10;3.27;;;2.97;;
17488;SDS011;8861;52.644;4.734;2022-08-07T05:58:38;3.17;;;2.87;;
17488;SDS011;8861;52.644;4.734;2022-08-07T06:01:08;2.87;;;2.57;;
17488;SDS011;8861;52.644;4.734;2022-08-07T06:03:36;3.10;;;2.80;;
17488;SDS011;8861;52.644;4.734;2022-08-07T06:06:06;3.10;;;2.80;;
17488;SDS011;8861;52.644;4.734;2022-08-07T06:08:33;3.37;;;2.90;;
17488;SDS011;8861;52.644;4.734;2022-08-07T06:11:00;3.33;;;3.03;;
17488;SDS011;8861;52.644;4.734;2022-08-07T06:13:27;3.17;;;2.87;;
17488;SDS011;8861;52.644;4.734;2022-08-07T06:15:54;3.17;;;2.87;;
17488;SDS011;8861;52.644;4.734;2022-08-07T06:18:24;3.00;;;2.70;;
17488;SDS011;8861;52.644;4.734;2022-08-07T06:20:54;3.10;;;2.80;;
17488;SDS011;8861;52.644;4.734;2022-08-07T06:23:23;3.67;;;3.00;;
17488;SDS011;8861;52.644;4.734;2022-08-07T06:25:50;3.10;;;2.80;;
17488;SDS011;8861;52.644;4.734;2022-08-07T06:28:17;3.30;;;3.00;;
17488;SDS011;8861;52.644;4.734;2022-08-07T06:30:44;3.20;;;2.80;;
17488;SDS011;8861;52.644;4.734;2022-08-07T06:33:11;3.63;;;3.30;;
17488;SDS011;8861;52.644;4.734;2022-08-07T06:35:38;3.30;;;3.00;;
17488;SDS011;8861;52.644;4.734;2022-08-07T06:38:05;3.97;;;3.57;;
17488;SDS011;8861;52.644;4.734;2022-08-07T06:40:36;4.57;;;3.70;;
17488;SDS011;8861;52.644;4.734;2022-08-07T06:43:08;4.73;;;3.80;;
17488;SDS011;8861;52.644;4.734;2022-08-07T06:45:37;4.53;;;4.07;;
17488;SDS011;8861;52.644;4.734;2022-08-07T06:48:04;4.03;;;3.63;;
17488;SDS011;8861;52.644;4.734;2022-08-07T06:50:32;4.10;;;3.70;;
17488;SDS011;8861;52.644;4.734;2022-08-07T06:53:01;4.27;;;3.87;;
17488;SDS011;8861;52.644;4.734;2022-08-07T06:55:31;4.60;;;4.07;;
17488;SDS011;8861;52.644;4.734;2022-08-07T06:58:01;4.60;;;4.10;;
17488;SDS011;8861;52.644;4.734;2022-08-07T07:00:32;4.53;;;4.13;;
17488;SDS011;8861;52.644;4.734;2022-08-07T07:03:01;4.23;;;3.70;;
17488;SDS011;8861;52.644;4.734;2022-08-07T07:05:29;4.10;;;3.70;;
17488;SDS011;8861;52.644;4.734;2022-08-07T07:07:56;4.23;;;3.63;;
17488;SDS011;8861;52.644;4.734;2022-08-07T07:10:26;4.50;;;3.70;;
17488;SDS011;8861;52.644;4.734;2022-08-07T07:12:55;3.87;;;3.47;;
17488;SDS011;8861;52.644;4.734;2022-08-07T07:15:27;4.37;;;3.60;;
17488;SDS011;8861;52.644;4.734;2022-08-07T07:17:57;4.83;;;3.90;;
17488;SDS011;8861;52.644;4.734;2022-08-07T07:20:31;4.53;;;3.70;;
17488;SDS011;8861;52.644;4.734;2022-08-07T07:23:00;4.07;;;3.40;;
17488;SDS011;8861;52.644;4.734;2022-08-07T07:25:29;3.90;;;3.37;;
17488;SDS011;8861;52.644;4.734;2022-08-07T07:27:59;4.17;;;3.67;;
17488;SDS011;8861;52.644;4.734;2022-08-07T07:30:31;3.40;;;3.10;;
17488;SDS011;8861;52.644;4.734;2022-08-07T07:33:01;3.40;;;2.93;;
17488;SDS011;8861;52.644;4.734;2022-08-07T07:35:30;4.67;;;3.67;;
17488;SDS011;8861;52.644;4.734;2022-08-07T07:37:59;4.57;;;3.40;;
17488;SDS011;8861;52.644;4.734;2022-08-07T07:40:27;3.83;;;3.30;;
17488;SDS011;8861;52.644;4.734;2022-08-07T07:42:58;3.50;;;3.17;;
17488;SDS011;8861;52.644;4.734;2022-08-07T07:45:27;3.20;;;2.90;;
17488;SDS011;8861;52.644;4.734;2022-08-07T07:47:57;4.07;;;3.40;;
17488;SDS011;8861;52.644;4.734;2022-08-07T07:50:26;4.43;;;3.43;;
17488;SDS011;8861;52.644;4.734;2022-08-07T07:52:54;3.93;;;3.47;;
17488;SDS011;8861;52.644;4.734;2022-08-07T07:55:22;3.83;;;3.43;;
17488;SDS011;8861;52.644;4.734;2022-08-07T07:57:52;4.27;;;3.33;;
17488;SDS011;8861;52.644;4.734;2022-08-07T08:00:22;4.63;;;4.00;;
17488;SDS011;8861;52.644;4.734;2022-08-07T08:02:50;5.60;;;4.27;;
17488;SDS011;8861;52.644;4.734;2022-08-07T08:05:21;5.53;;;4.50;;
17488;SDS011;8861;52.644;4.734;2022-08-07T08:07:49;5.23;;;4.20;;
17488;SDS011;8861;52.644;4.734;2022-08-07T08:10:16;5.00;;;4.30;;
17488;SDS011;8861;52.644;4.734;2022-08-07T08:12:45;6.10;;;4.37;;
17488;SDS011;8861;52.644;4.734;2022-08-07T08:15:13;5.20;;;4.40;;
17488;SDS011;8861;52.644;4.734;2022-08-07T08:17:42;4.40;;;4.00;;
17488;SDS011;8861;52.644;4.734;2022-08-07T08:20:11;5.37;;;4.10;;
17488;SDS011;8861;52.644;4.734;2022-08-07T08:22:41;4.87;;;4.37;;
17488;SDS011;8861;52.644;4.734;2022-08-07T08:25:29;5.27;;;4.00;;
17488;SDS011;8861;52.644;4.734;2022-08-07T08:28:18;4.97;;;4.10;;
17488;SDS011;8861;52.644;4.734;2022-08-07T08:30:47;5.50;;;4.13;;
17488;SDS011;8861;52.644;4.734;2022-08-07T08:33:20;5.17;;;3.63;;
17488;SDS011;8861;52.644;4.734;2022-08-07T08:35:49;5.40;;;3.60;;
17488;SDS011;8861;52.644;4.734;2022-08-07T08:38:21;4.07;;;3.60;;
17488;SDS011;8861;52.644;4.734;2022-08-07T08:40:51;3.97;;;3.40;;
17488;SDS011;8861;52.644;4.734;2022-08-07T08:43:22;6.20;;;3.40;;
17488;SDS011;8861;52.644;4.734;2022-08-07T08:46:01;3.87;;;3.00;;
17488;SDS011;8861;52.644;4.734;2022-08-07T08:48:35;4.67;;;3.13;;
17488;SDS011;8861;52.644;4.734;2022-08-07T08:51:09;3.63;;;3.00;;
17488;SDS011;8861;52.644;4.734;2022-08-07T08:53:43;3.57;;;3.13;;
17488;SDS011;8861;52.644;4.734;2022-08-07T08:56:18;5.50;;;3.47;;
17488;SDS011;8861;52.644;4.734;2022-08-07T08:58:52;3.30;;;3.00;;
17488;SDS011;8861;52.644;4.734;2022-08-07T09:01:23;3.20;;;2.77;;
17488;SDS011;8861;52.644;4.734;2022-08-07T09:03:57;3.57;;;3.10;;
17488;SDS011;8861;52.644;4.734;2022-08-07T09:09:23;4.77;;;3.20;;
17488;SDS011;8861;52.644;4.734;2022-08-07T09:12:04;3.57;;;3.27;;
17488;SDS011;8861;52.644;4.734;2022-08-07T09:14:39;3.93;;;3.23;;
17488;SDS011;8861;52.644;4.734;2022-08-07T09:17:16;4.47;;;3.67;;
17488;SDS011;8861;52.644;4.734;2022-08-07T09:19:58;3.70;;;3.40;;
17488;SDS011;8861;52.644;4.734;2022-08-07T09:22:41;4.27;;;3.40;;
17488;SDS011;8861;52.644;4.734;2022-08-07T09:25:20;3.73;;;3.30;;
17488;SDS011;8861;52.644;4.734;2022-08-07T09:27:51;4.10;;;3.70;;
17488;SDS011;8861;52.644;4.734;2022-08-07T09:30:28;5.50;;;4.10;;
17488;SDS011;8861;52.644;4.734;2022-08-07T09:33:10;6.27;;;4.43;;
17488;SDS011;8861;52.644;4.734;2022-08-07T09:35:44;5.33;;;4.10;;
17488;SDS011;8861;52.644;4.734;2022-08-07T09:38:18;4.90;;;4.40;;
17488;SDS011;8861;52.644;4.734;2022-08-07T09:40:55;6.37;;;4.77;;
17488;SDS011;8861;52.644;4.734;2022-08-07T09:43:30;5.07;;;4.57;;
17488;SDS011;8861;52.644;4.734;2022-08-07T09:46:21;6.37;;;4.80;;
17488;SDS011;8861;52.644;4.734;2022-08-07T09:49:00;5.97;;;5.37;;
17488;SDS011;8861;52.644;4.734;2022-08-07T09:51:46;7.07;;;5.90;;
17488;SDS011;8861;52.644;4.734;2022-08-07T09:54:25;6.10;;;5.50;;
17488;SDS011;8861;52.644;4.734;2022-08-07T09:57:08;6.67;;;5.80;;
17488;SDS011;8861;52.644;4.734;2022-08-07T09:59:52;6.53;;;5.70;;
17488;SDS011;8861;52.644;4.734;2022-08-07T10:02:41;6.40;;;5.80;;
17488;SDS011;8861;52.644;4.734;2022-08-07T10:08:39;5.50;;;5.00;;
17488;SDS011;8861;52.644;4.734;2022-08-07T10:11:23;5.90;;;4.80;;
17488;SDS011;8861;52.644;4.734;2022-08-07T10:14:11;6.13;;;5.37;;
17488;SDS011;8861;52.644;4.734;2022-08-07T10:16:57;5.37;;;4.87;;
17488;SDS011;8861;52.644;4.734;2022-08-07T10:19:36;6.53;;;5.00;;
17488;SDS011;8861;52.644;4.734;2022-08-07T10:22:15;5.80;;;5.20;;
17488;SDS011;8861;52.644;4.734;2022-08-07T10:25:08;5.80;;;5.00;;
17488;SDS011;8861;52.644;4.734;2022-08-07T10:30:53;6.60;;;5.00;;
17488;SDS011;8861;52.644;4.734;2022-08-07T10:33:42;5.30;;;4.73;;
17488;SDS011;8861;52.644;4.734;2022-08-07T10:36:35;4.47;;;4.03;;
17488;SDS011;8861;52.644;4.734;2022-08-07T10:39:10;4.77;;;3.80;;
17488;SDS011;8861;52.644;4.734;2022-08-07T10:41:56;4.10;;;3.70;;
17488;SDS011;8861;52.644;4.734;2022-08-07T10:44:38;3.97;;;3.50;;
17488;SDS011;8861;52.644;4.734;2022-08-07T10:47:14;3.50;;;3.20;;
17488;SDS011;8861;52.644;4.734;2022-08-07T10:49:51;3.60;;;3.30;;
17488;SDS011;8861;52.644;4.734;2022-08-07T10:52:23;3.30;;;3.00;;
17488;SDS011;8861;52.644;4.734;2022-08-07T10:55:01;3.67;;;2.90;;
17488;SDS011;8861;52.644;4.734;2022-08-07T10:57:38;4.13;;;3.27;;
17488;SDS011;8861;52.644;4.734;2022-08-07T11:00:12;4.07;;;3.30;;
17488;SDS011;8861;52.644;4.734;2022-08-07T11:02:43;5.60;;;3.80;;
17488;SDS011;8861;52.644;4.734;2022-08-07T11:05:29;4.43;;;3.30;;
17488;SDS011;8861;52.644;4.734;2022-08-07T11:08:02;5.07;;;3.63;;
17488;SDS011;8861;52.644;4.734;2022-08-07T11:10:38;3.93;;;3.40;;
17488;SDS011;8861;52.644;4.734;2022-08-07T11:13:15;3.97;;;3.50;;
17488;SDS011;8861;52.644;4.734;2022-08-07T11:15:49;3.50;;;3.17;;
17488;SDS011;8861;52.644;4.734;2022-08-07T11:18:20;4.20;;;3.50;;
17488;SDS011;8861;52.644;4.734;2022-08-07T11:20:58;4.63;;;3.53;;
17488;SDS011;8861;52.644;4.734;2022-08-07T11:23:31;4.93;;;3.30;;
17488;SDS011;8861;52.644;4.734;2022-08-07T11:26:07;5.13;;;3.50;;
17488;SDS011;8861;52.644;4.734;2022-08-07T11:28:42;3.80;;;3.30;;
17488;SDS011;8861;52.644;4.734;2022-08-07T11:31:21;4.27;;;3.40;;
17488;SDS011;8861;52.644;4.734;2022-08-07T11:33:56;4.30;;;3.47;;
17488;SDS011;8861;52.644;4.734;2022-08-07T11:36:35;4.47;;;3.53;;
17488;SDS011;8861;52.644;4.734;2022-08-07T11:39:14;3.87;;;3.50;;
17488;SDS011;8861;52.644;4.734;2022-08-07T11:41:54;3.93;;;3.50;;
17488;SDS011;8861;52.644;4.734;2022-08-07T11:44:31;4.93;;;3.73;;
17488;SDS011;8861;52.644;4.734;2022-08-07T11:47:08;4.27;;;3.50;;
17488;SDS011;8861;52.644;4.734;2022-08-07T11:49:54;4.77;;;3.60;;
17488;SDS011;8861;52.644;4.734;2022-08-07T11:55:22;6.30;;;3.70;;
17488;SDS011;8861;52.644;4.734;2022-08-07T11:58:01;4.40;;;3.60;;
17488;SDS011;8861;52.644;4.734;2022-08-07T12:00:37;4.03;;;3.43;;
17488;SDS011;8861;52.644;4.734;2022-08-07T12:03:23;7.67;;;3.80;;
17488;SDS011;8861;52.644;4.734;2022-08-07T12:06:21;4.23;;;2.87;;
17488;SDS011;8861;52.644;4.734;2022-08-07T12:08:57;2.97;;;2.67;;
17488;SDS011;8861;52.644;4.734;2022-08-07T12:11:33;2.87;;;2.40;;
17488;SDS011;8861;52.644;4.734;2022-08-07T12:14:06;4.50;;;2.53;;
17488;SDS011;8861;52.644;4.734;2022-08-07T12:16:41;2.77;;;2.33;;
17488;SDS011;8861;52.644;4.734;2022-08-07T12:19:12;2.37;;;2.00;;
17488;SDS011;8861;52.644;4.734;2022-08-07T12:21:47;2.87;;;2.00;;
17488;SDS011;8861;52.644;4.734;2022-08-07T12:24:21;3.80;;;1.90;;
17488;SDS011;8861;52.644;4.734;2022-08-07T12:26:57;3.77;;;1.97;;
17488;SDS011;8861;52.644;4.734;2022-08-07T12:29:31;2.97;;;1.90;;
17488;SDS011;8861;52.644;4.734;2022-08-07T12:32:07;3.37;;;2.10;;
17488;SDS011;8861;52.644;4.734;2022-08-07T12:34:39;2.67;;;2.03;;
17488;SDS011;8861;52.644;4.734;2022-08-07T12:37:09;6.03;;;2.40;;
17488;SDS011;8861;52.644;4.734;2022-08-07T12:39:37;4.07;;;2.17;;
17488;SDS011;8861;52.644;4.734;2022-08-07T12:42:06;2.93;;;1.97;;
17488;SDS011;8861;52.644;4.734;2022-08-07T12:44:35;3.03;;;1.90;;
17488;SDS011;8861;52.644;4.734;2022-08-07T12:47:08;2.43;;;2.20;;
17488;SDS011;8861;52.644;4.734;2022-08-07T12:49:51;3.17;;;2.47;;
17488;SDS011;8861;52.644;4.734;2022-08-07T12:52:26;3.53;;;2.40;;
17488;SDS011;8861;52.644;4.734;2022-08-07T12:55:03;4.10;;;2.97;;
17488;SDS011;8861;52.644;4.734;2022-08-07T12:57:34;4.10;;;2.80;;
17488;SDS011;8861;52.644;4.734;2022-08-07T13:00:05;4.70;;;2.93;;
17488;SDS011;8861;52.644;4.734;2022-08-07T13:02:49;3.67;;;2.70;;
17488;SDS011;8861;52.644;4.734;2022-08-07T13:05:32;3.07;;;2.70;;
17488;SDS011;8861;52.644;4.734;2022-08-07T13:08:33;5.20;;;3.10;;
17488;SDS011;8861;52.644;4.734;2022-08-07T13:11:22;5.63;;;3.20;;
17488;SDS011;8861;52.644;4.734;2022-08-07T13:13:57;4.30;;;3.20;;
17488;SDS011;8861;52.644;4.734;2022-08-07T13:16:34;3.40;;;2.90;;
17488;SDS011;8861;52.644;4.734;2022-08-07T13:19:10;5.93;;;3.40;;
17488;SDS011;8861;52.644;4.734;2022-08-07T13:21:44;4.43;;;3.37;;
17488;SDS011;8861;52.644;4.734;2022-08-07T13:24:17;5.37;;;3.43;;
17488;SDS011;8861;52.644;4.734;2022-08-07T13:26:50;4.20;;;3.57;;
17488;SDS011;8861;52.644;4.734;2022-08-07T13:29:26;4.87;;;3.57;;
17488;SDS011;8861;52.644;4.734;2022-08-07T13:32:00;6.57;;;3.80;;
17488;SDS011;8861;52.644;4.734;2022-08-07T13:34:37;6.87;;;4.00;;
17488;SDS011;8861;52.644;4.734;2022-08-07T13:37:13;5.50;;;3.97;;
17488;SDS011;8861;52.644;4.734;2022-08-07T13:39:49;6.37;;;3.80;;
17488;SDS011;8861;52.644;4.734;2022-08-07T13:42:28;3.80;;;3.20;;
17488;SDS011;8861;52.644;4.734;2022-08-07T13:44:57;4.70;;;3.33;;
17488;SDS011;8861;52.644;4.734;2022-08-07T13:47:25;3.73;;;3.30;;
17488;SDS011;8861;52.644;4.734;2022-08-07T13:49:56;4.03;;;3.20;;
17488;SDS011;8861;52.644;4.734;2022-08-07T13:52:26;4.17;;;3.30;;
17488;SDS011;8861;52.644;4.734;2022-08-07T13:54:56;3.80;;;3.17;;
17488;SDS011;8861;52.644;4.734;2022-08-07T13:57:25;6.00;;;3.40;;
17488;SDS011;8861;52.644;4.734;2022-08-07T13:59:54;4.53;;;3.03;;
17488;SDS011;8861;52.644;4.734;2022-08-07T14:02:26;5.03;;;3.00;;
17488;SDS011;8861;52.644;4.734;2022-08-07T14:04:59;6.17;;;3.03;;
17488;SDS011;8861;52.644;4.734;2022-08-07T14:07:29;4.10;;;3.10;;
17488;SDS011;8861;52.644;4.734;2022-08-07T14:09:58;4.10;;;3.30;;
17488;SDS011;8861;52.644;4.734;2022-08-07T14:12:29;4.47;;;3.43;;
17488;SDS011;8861;52.644;4.734;2022-08-07T14:15:03;3.87;;;3.30;;
17488;SDS011;8861;52.644;4.734;2022-08-07T14:17:33;7.67;;;3.80;;
17488;SDS011;8861;52.644;4.734;2022-08-07T14:20:08;5.70;;;3.13;;
17488;SDS011;8861;52.644;4.734;2022-08-07T14:22:44;3.97;;;3.40;;
17488;SDS011;8861;52.644;4.734;2022-08-07T14:25:24;4.27;;;2.90;;
17488;SDS011;8861;52.644;4.734;2022-08-07T14:27:57;5.87;;;3.10;;
17488;SDS011;8861;52.644;4.734;2022-08-07T14:30:31;4.00;;;2.50;;
17488;SDS011;8861;52.644;4.734;2022-08-07T14:33:01;3.20;;;2.50;;
17488;SDS011;8861;52.644;4.734;2022-08-07T14:35:31;3.60;;;2.50;;
17488;SDS011;8861;52.644;4.734;2022-08-07T14:38:00;3.20;;;2.60;;
17488;SDS011;8861;52.644;4.734;2022-08-07T14:40:28;3.40;;;2.40;;
17488;SDS011;8861;52.644;4.734;2022-08-07T14:42:58;2.87;;;2.10;;
17488;SDS011;8861;52.644;4.734;2022-08-07T14:45:31;4.20;;;2.40;;
17488;SDS011;8861;52.644;4.734;2022-08-07T14:48:05;2.30;;;2.03;;
17488;SDS011;8861;52.644;4.734;2022-08-07T14:50:40;3.73;;;2.47;;
17488;SDS011;8861;52.644;4.734;2022-08-07T14:53:08;3.17;;;2.00;;
17488;SDS011;8861;52.644;4.734;2022-08-07T14:55:36;2.97;;;1.90;;
17488;SDS011;8861;52.644;4.734;2022-08-07T14:58:06;5.90;;;2.40;;
17488;SDS011;8861;52.644;4.734;2022-08-07T15:00:36;3.83;;;2.33;;
17488;SDS011;8861;52.644;4.734;2022-08-07T15:03:05;3.43;;;2.50;;
17488;SDS011;8861;52.644;4.734;2022-08-07T15:05:35;3.57;;;2.40;;
17488;SDS011;8861;52.644;4.734;2022-08-07T15:08:05;3.07;;;2.20;;
17488;SDS011;8861;52.644;4.734;2022-08-07T15:10:34;2.87;;;2.10;;
17488;SDS011;8861;52.644;4.734;2022-08-07T15:13:07;4.80;;;2.53;;
17488;SDS011;8861;52.644;4.734;2022-08-07T15:15:44;4.70;;;2.43;;
17488;SDS011;8861;52.644;4.734;2022-08-07T15:18:17;4.73;;;3.10;;
17488;SDS011;8861;52.644;4.734;2022-08-07T15:20:48;3.67;;;2.77;;
17488;SDS011;8861;52.644;4.734;2022-08-07T15:23:18;4.67;;;2.93;;
17488;SDS011;8861;52.644;4.734;2022-08-07T15:25:53;3.50;;;2.90;;
17488;SDS011;8861;52.644;4.734;2022-08-07T15:28:23;3.50;;;3.10;;
17488;SDS011;8861;52.644;4.734;2022-08-07T15:30:53;5.13;;;3.37;;
17488;SDS011;8861;52.644;4.734;2022-08-07T15:33:24;3.70;;;2.90;;
17488;SDS011;8861;52.644;4.734;2022-08-07T15:35:54;6.03;;;3.53;;
17488;SDS011;8861;52.644;4.734;2022-08-07T15:38:24;4.73;;;3.30;;
17488;SDS011;8861;52.644;4.734;2022-08-07T15:40:56;4.30;;;3.50;;